sensor_id;sensor_type;location;lat;lon;timestamp;P1;durP1;ratioP1;P2;durP2;ratioP2
8409;SDS011;4242;53.670;10.080;2022-07-15T00:00:48;6.60;;;1.83;;
8409;SDS011;4242;53.670;10.080;2022-07-15T00:03:18;8.53;;;2.00;;
8409;SDS011;4242;53.670;10.080;2022-07-15T00:05:45;6.80;;;2.13;;
8409;SDS011;4242;53.670;10.080;2022-07-15T00:08:11;7.40;;;1.87;;
8409;SDS011;4242;53.670;10.080;2022-07-15T00:10:37;9.33;;;2.10;;
8409;SDS011;4242;53.670;10.080;2022-07-15T00:13:03;7.97;;;2.20;;
8409;SDS011;4242;53.670;10.080;2022-07-15T00:15:30;7.83;;;2.10;;
8409;SDS011;4242;53.670;10.080;2022-07-15T00:17:56;9.97;;;2.27;;
8409;SDS011;4242;53.670;10.080;2022-07-15T00:20:26;9.47;;;2.33;;
8409;SDS011;4242;53.670;10.080;2022-07-15T00:22:52;5.70;;;2.03;;
8409;SDS011;4242;53.670;10.080;2022-07-15T00:25:18;7.67;;;2.33;;
8409;SDS011;4242;53.670;10.080;2022-07-15T00:27:55;6.00;;;1.80;;
8409;SDS011;4242;53.670;10.080;2022-07-15T00:30:21;8.37;;;1.80;;
8409;SDS011;4242;53.670;10.080;2022-07-15T00:32:48;7.93;;;1.90;;
8409;SDS011;4242;53.670;10.080;2022-07-15T00:35:14;5.67;;;1.67;;
8409;SDS011;4242;53.670;10.080;2022-07-15T00:37:40;7.23;;;1.97;;
8409;SDS011;4242;53.670;10.080;2022-07-15T00:40:06;9.30;;;1.77;;
8409;SDS011;4242;53.670;10.080;2022-07-15T00:42:32;7.60;;;2.20;;
8409;SDS011;4242;53.670;10.080;2022-07-15T00:45:11;10.43;;;2.10;;
8409;SDS011;4242;53.670;10.080;2022-07-15T00:47:38;8.27;;;2.00;;
8409;SDS011;4242;53.670;10.080;2022-07-15T00:50:05;9.57;;;1.90;;
8409;SDS011;4242;53.670;10.080;2022-07-15T00:52:31;6.90;;;2.10;;
8409;SDS011;4242;53.670;10.080;2022-07-15T00:54:59;9.13;;;1.73;;
8409;SDS011;4242;53.670;10.080;2022-07-15T00:57:26;9.23;;;2.00;;
8409;SDS011;4242;53.670;10.080;2022-07-15T00:59:53;8.07;;;2.00;;
8409;SDS011;4242;53.670;10.080;2022-07-15T01:02:20;6.93;;;2.00;;
8409;SDS011;4242;53.670;10.080;2022-07-15T01:04:46;7.20;;;1.90;;
8409;SDS011;4242;53.670;10.080;2022-07-15T01:07:13;4.87;;;1.77;;
8409;SDS011;4242;53.670;10.080;2022-07-15T01:09:39;5.00;;;1.90;;
8409;SDS011;4242;53.670;10.080;2022-07-15T01:12:05;5.73;;;1.70;;
8409;SDS011;4242;53.670;10.080;2022-07-15T01:14:31;5.00;;;1.60;;
8409;SDS011;4242;53.670;10.080;2022-07-15T01:16:57;10.27;;;2.20;;
8409;SDS011;4242;53.670;10.080;2022-07-15T01:19:23;3.83;;;1.50;;
8409;SDS011;4242;53.670;10.080;2022-07-15T01:21:49;6.33;;;1.60;;
8409;SDS011;4242;53.670;10.080;2022-07-15T01:24:15;9.03;;;2.00;;
8409;SDS011;4242;53.670;10.080;2022-07-15T01:26:41;7.23;;;1.70;;
8409;SDS011;4242;53.670;10.080;2022-07-15T01:29:07;5.37;;;1.50;;
8409;SDS011;4242;53.670;10.080;2022-07-15T01:31:33;5.67;;;1.27;;
8409;SDS011;4242;53.670;10.080;2022-07-15T01:33:59;2.93;;;1.30;;
8409;SDS011;4242;53.670;10.080;2022-07-15T01:36:25;4.97;;;1.40;;
8409;SDS011;4242;53.670;10.080;2022-07-15T01:38:51;3.63;;;1.27;;
8409;SDS011;4242;53.670;10.080;2022-07-15T01:41:16;5.40;;;1.33;;
8409;SDS011;4242;53.670;10.080;2022-07-15T01:43:42;6.37;;;1.60;;
8409;SDS011;4242;53.670;10.080;2022-07-15T01:46:08;8.10;;;1.80;;
8409;SDS011;4242;53.670;10.080;2022-07-15T01:48:34;4.07;;;1.33;;
8409;SDS011;4242;53.670;10.080;2022-07-15T01:51:19;6.17;;;1.50;;
8409;SDS011;4242;53.670;10.080;2022-07-15T01:53:45;3.93;;;1.40;;
8409;SDS011;4242;53.670;10.080;2022-07-15T01:56:11;2.10;;;1.13;;
8409;SDS011;4242;53.670;10.080;2022-07-15T01:58:37;5.93;;;1.47;;
8409;SDS011;4242;53.670;10.080;2022-07-15T02:01:03;5.70;;;1.40;;
8409;SDS011;4242;53.670;10.080;2022-07-15T02:03:30;3.33;;;1.20;;
8409;SDS011;4242;53.670;10.080;2022-07-15T02:05:56;4.30;;;1.47;;
8409;SDS011;4242;53.670;10.080;2022-07-15T02:08:22;5.33;;;1.70;;
8409;SDS011;4242;53.670;10.080;2022-07-15T02:10:48;6.37;;;1.40;;
8409;SDS011;4242;53.670;10.080;2022-07-15T02:13:14;5.67;;;1.20;;
8409;SDS011;4242;53.670;10.080;2022-07-15T02:15:41;4.23;;;1.40;;
8409;SDS011;4242;53.670;10.080;2022-07-15T02:18:07;3.50;;;1.10;;
8409;SDS011;4242;53.670;10.080;2022-07-15T02:20:33;3.60;;;1.47;;
8409;SDS011;4242;53.670;10.080;2022-07-15T02:23:00;2.93;;;1.00;;
8409;SDS011;4242;53.670;10.080;2022-07-15T02:25:30;4.77;;;1.27;;
8409;SDS011;4242;53.670;10.080;2022-07-15T02:27:57;2.53;;;0.97;;
8409;SDS011;4242;53.670;10.080;2022-07-15T02:30:24;2.53;;;0.90;;
8409;SDS011;4242;53.670;10.080;2022-07-15T02:32:50;1.57;;;0.70;;
8409;SDS011;4242;53.670;10.080;2022-07-15T02:35:16;5.47;;;1.30;;
8409;SDS011;4242;53.670;10.080;2022-07-15T02:37:43;5.20;;;1.13;;
8409;SDS011;4242;53.670;10.080;2022-07-15T02:40:09;2.50;;;1.10;;
8409;SDS011;4242;53.670;10.080;2022-07-15T02:42:36;3.53;;;1.20;;
8409;SDS011;4242;53.670;10.080;2022-07-15T02:45:02;4.60;;;1.20;;
8409;SDS011;4242;53.670;10.080;2022-07-15T02:47:28;6.73;;;1.10;;
8409;SDS011;4242;53.670;10.080;2022-07-15T02:49:54;3.83;;;1.30;;
8409;SDS011;4242;53.670;10.080;2022-07-15T02:52:20;3.03;;;0.93;;
8409;SDS011;4242;53.670;10.080;2022-07-15T02:54:46;5.07;;;1.20;;
8409;SDS011;4242;53.670;10.080;2022-07-15T02:57:12;4.03;;;1.20;;
8409;SDS011;4242;53.670;10.080;2022-07-15T02:59:38;4.67;;;1.37;;
8409;SDS011;4242;53.670;10.080;2022-07-15T03:02:04;7.07;;;1.20;;
8409;SDS011;4242;53.670;10.080;2022-07-15T03:09:27;4.43;;;1.20;;
8409;SDS011;4242;53.670;10.080;2022-07-15T03:11:53;3.20;;;0.90;;
8409;SDS011;4242;53.670;10.080;2022-07-15T03:14:19;4.80;;;1.40;;
8409;SDS011;4242;53.670;10.080;2022-07-15T03:16:45;4.00;;;1.20;;
8409;SDS011;4242;53.670;10.080;2022-07-15T03:19:11;4.63;;;1.40;;
8409;SDS011;4242;53.670;10.080;2022-07-15T03:21:37;5.80;;;1.20;;
8409;SDS011;4242;53.670;10.080;2022-07-15T03:24:03;9.20;;;1.43;;
8409;SDS011;4242;53.670;10.080;2022-07-15T03:26:29;7.33;;;1.60;;
8409;SDS011;4242;53.670;10.080;2022-07-15T03:28:55;4.40;;;1.00;;
8409;SDS011;4242;53.670;10.080;2022-07-15T03:31:22;5.40;;;1.00;;
8409;SDS011;4242;53.670;10.080;2022-07-15T03:33:48;5.73;;;1.50;;
8409;SDS011;4242;53.670;10.080;2022-07-15T03:36:14;4.70;;;1.50;;
8409;SDS011;4242;53.670;10.080;2022-07-15T03:38:40;3.00;;;1.30;;
8409;SDS011;4242;53.670;10.080;2022-07-15T03:41:06;5.53;;;1.50;;
8409;SDS011;4242;53.670;10.080;2022-07-15T03:43:33;6.53;;;1.70;;
8409;SDS011;4242;53.670;10.080;2022-07-15T03:45:59;3.43;;;1.77;;
8409;SDS011;4242;53.670;10.080;2022-07-15T03:48:25;4.77;;;1.80;;
8409;SDS011;4242;53.670;10.080;2022-07-15T03:50:51;6.00;;;1.30;;
8409;SDS011;4242;53.670;10.080;2022-07-15T03:53:17;3.00;;;1.00;;
8409;SDS011;4242;53.670;10.080;2022-07-15T03:55:43;3.93;;;1.63;;
8409;SDS011;4242;53.670;10.080;2022-07-15T03:58:09;4.83;;;1.57;;
8409;SDS011;4242;53.670;10.080;2022-07-15T04:00:35;3.20;;;1.27;;
8409;SDS011;4242;53.670;10.080;2022-07-15T04:03:01;5.90;;;1.53;;
8409;SDS011;4242;53.670;10.080;2022-07-15T04:05:27;6.50;;;1.70;;
8409;SDS011;4242;53.670;10.080;2022-07-15T04:07:53;4.53;;;1.40;;
8409;SDS011;4242;53.670;10.080;2022-07-15T04:10:19;7.07;;;1.70;;
8409;SDS011;4242;53.670;10.080;2022-07-15T04:12:45;2.63;;;1.07;;
8409;SDS011;4242;53.670;10.080;2022-07-15T04:15:11;3.27;;;1.33;;
8409;SDS011;4242;53.670;10.080;2022-07-15T04:17:39;3.67;;;1.27;;
8409;SDS011;4242;53.670;10.080;2022-07-15T04:20:06;4.40;;;1.37;;
8409;SDS011;4242;53.670;10.080;2022-07-15T04:22:42;7.60;;;1.60;;
8409;SDS011;4242;53.670;10.080;2022-07-15T04:25:09;6.43;;;1.63;;
8409;SDS011;4242;53.670;10.080;2022-07-15T04:27:36;5.43;;;1.13;;
8409;SDS011;4242;53.670;10.080;2022-07-15T04:30:02;6.47;;;1.67;;
8409;SDS011;4242;53.670;10.080;2022-07-15T04:32:30;4.60;;;1.20;;
8409;SDS011;4242;53.670;10.080;2022-07-15T04:34:56;2.10;;;1.20;;
8409;SDS011;4242;53.670;10.080;2022-07-15T04:37:22;5.50;;;1.67;;
8409;SDS011;4242;53.670;10.080;2022-07-15T04:39:48;5.73;;;1.47;;
8409;SDS011;4242;53.670;10.080;2022-07-15T04:42:14;5.50;;;1.60;;
8409;SDS011;4242;53.670;10.080;2022-07-15T04:44:40;7.70;;;1.20;;
8409;SDS011;4242;53.670;10.080;2022-07-15T04:47:06;6.17;;;1.60;;
8409;SDS011;4242;53.670;10.080;2022-07-15T04:49:32;4.23;;;1.23;;
8409;SDS011;4242;53.670;10.080;2022-07-15T04:52:16;4.23;;;1.30;;
8409;SDS011;4242;53.670;10.080;2022-07-15T04:54:43;4.87;;;1.60;;
8409;SDS011;4242;53.670;10.080;2022-07-15T04:57:09;3.30;;;1.13;;
8409;SDS011;4242;53.670;10.080;2022-07-15T04:59:36;5.00;;;1.40;;
8409;SDS011;4242;53.670;10.080;2022-07-15T05:02:02;2.93;;;1.17;;
8409;SDS011;4242;53.670;10.080;2022-07-15T05:04:28;4.17;;;1.13;;
8409;SDS011;4242;53.670;10.080;2022-07-15T05:06:54;5.73;;;1.50;;
8409;SDS011;4242;53.670;10.080;2022-07-15T05:09:21;5.67;;;1.27;;
8409;SDS011;4242;53.670;10.080;2022-07-15T05:11:47;5.27;;;1.50;;
8409;SDS011;4242;53.670;10.080;2022-07-15T05:14:13;8.47;;;1.60;;
8409;SDS011;4242;53.670;10.080;2022-07-15T05:16:39;3.97;;;1.50;;
8409;SDS011;4242;53.670;10.080;2022-07-15T05:19:05;5.10;;;1.67;;
8409;SDS011;4242;53.670;10.080;2022-07-15T05:21:31;3.63;;;1.10;;
8409;SDS011;4242;53.670;10.080;2022-07-15T05:23:57;4.27;;;1.43;;
8409;SDS011;4242;53.670;10.080;2022-07-15T05:26:23;8.23;;;1.67;;
8409;SDS011;4242;53.670;10.080;2022-07-15T05:28:49;6.27;;;1.67;;
8409;SDS011;4242;53.670;10.080;2022-07-15T05:31:15;4.53;;;1.30;;
8409;SDS011;4242;53.670;10.080;2022-07-15T05:33:41;3.57;;;1.30;;
8409;SDS011;4242;53.670;10.080;2022-07-15T05:36:14;6.57;;;1.50;;
8409;SDS011;4242;53.670;10.080;2022-07-15T05:38:41;5.67;;;1.60;;
8409;SDS011;4242;53.670;10.080;2022-07-15T05:41:07;5.50;;;1.70;;
8409;SDS011;4242;53.670;10.080;2022-07-15T05:43:34;7.10;;;1.40;;
8409;SDS011;4242;53.670;10.080;2022-07-15T05:46:00;6.53;;;1.50;;
8409;SDS011;4242;53.670;10.080;2022-07-15T05:48:26;6.57;;;1.60;;
8409;SDS011;4242;53.670;10.080;2022-07-15T05:50:52;4.33;;;1.50;;
8409;SDS011;4242;53.670;10.080;2022-07-15T05:53:18;4.33;;;1.50;;
8409;SDS011;4242;53.670;10.080;2022-07-15T05:55:44;5.47;;;1.37;;
8409;SDS011;4242;53.670;10.080;2022-07-15T05:58:10;3.30;;;1.10;;
8409;SDS011;4242;53.670;10.080;2022-07-15T06:00:36;3.73;;;1.30;;
8409;SDS011;4242;53.670;10.080;2022-07-15T06:03:03;5.40;;;1.60;;
8409;SDS011;4242;53.670;10.080;2022-07-15T06:05:30;5.07;;;1.20;;
8409;SDS011;4242;53.670;10.080;2022-07-15T06:07:56;3.27;;;1.23;;
8409;SDS011;4242;53.670;10.080;2022-07-15T06:10:22;3.57;;;1.20;;
8409;SDS011;4242;53.670;10.080;2022-07-15T06:12:48;3.60;;;1.30;;
8409;SDS011;4242;53.670;10.080;2022-07-15T06:15:14;3.07;;;1.13;;
8409;SDS011;4242;53.670;10.080;2022-07-15T06:17:40;6.23;;;1.53;;
8409;SDS011;4242;53.670;10.080;2022-07-15T06:20:07;4.50;;;1.43;;
8409;SDS011;4242;53.670;10.080;2022-07-15T06:22:33;4.30;;;1.40;;
8409;SDS011;4242;53.670;10.080;2022-07-15T06:24:59;3.63;;;1.37;;
8409;SDS011;4242;53.670;10.080;2022-07-15T06:27:25;4.33;;;1.30;;
8409;SDS011;4242;53.670;10.080;2022-07-15T06:29:51;5.63;;;1.27;;
8409;SDS011;4242;53.670;10.080;2022-07-15T06:32:18;4.97;;;1.13;;
8409;SDS011;4242;53.670;10.080;2022-07-15T06:34:44;5.10;;;1.37;;
8409;SDS011;4242;53.670;10.080;2022-07-15T06:37:10;6.80;;;1.37;;
8409;SDS011;4242;53.670;10.080;2022-07-15T06:39:36;5.07;;;1.20;;
8409;SDS011;4242;53.670;10.080;2022-07-15T06:42:02;5.33;;;1.30;;
8409;SDS011;4242;53.670;10.080;2022-07-15T06:44:28;2.90;;;0.97;;
8409;SDS011;4242;53.670;10.080;2022-07-15T06:46:55;5.33;;;1.27;;
8409;SDS011;4242;53.670;10.080;2022-07-15T06:49:21;3.20;;;1.30;;
8409;SDS011;4242;53.670;10.080;2022-07-15T06:51:47;4.63;;;1.17;;
8409;SDS011;4242;53.670;10.080;2022-07-15T06:54:13;3.30;;;1.30;;
8409;SDS011;4242;53.670;10.080;2022-07-15T06:56:39;3.72;;;1.10;;
8409;SDS011;4242;53.670;10.080;2022-07-15T06:59:05;4.47;;;1.37;;
8409;SDS011;4242;53.670;10.080;2022-07-15T07:01:31;3.20;;;1.13;;
8409;SDS011;4242;53.670;10.080;2022-07-15T07:03:58;3.37;;;1.03;;
8409;SDS011;4242;53.670;10.080;2022-07-15T07:06:24;3.20;;;0.97;;
8409;SDS011;4242;53.670;10.080;2022-07-15T07:08:51;3.10;;;1.23;;
8409;SDS011;4242;53.670;10.080;2022-07-15T07:11:17;6.17;;;1.40;;
8409;SDS011;4242;53.670;10.080;2022-07-15T07:13:43;2.03;;;1.07;;
8409;SDS011;4242;53.670;10.080;2022-07-15T07:16:09;6.83;;;1.63;;
8409;SDS011;4242;53.670;10.080;2022-07-15T07:18:35;1.13;;;0.80;;
8409;SDS011;4242;53.670;10.080;2022-07-15T07:21:02;4.07;;;1.30;;
8409;SDS011;4242;53.670;10.080;2022-07-15T07:23:28;6.83;;;1.40;;
8409;SDS011;4242;53.670;10.080;2022-07-15T07:25:55;4.17;;;1.10;;
8409;SDS011;4242;53.670;10.080;2022-07-15T07:28:21;3.73;;;1.27;;
8409;SDS011;4242;53.670;10.080;2022-07-15T07:30:47;3.60;;;1.00;;
8409;SDS011;4242;53.670;10.080;2022-07-15T07:33:16;2.13;;;0.97;;
8409;SDS011;4242;53.670;10.080;2022-07-15T07:35:42;2.27;;;0.80;;
8409;SDS011;4242;53.670;10.080;2022-07-15T07:38:09;3.23;;;0.87;;
8409;SDS011;4242;53.670;10.080;2022-07-15T07:40:35;3.43;;;0.90;;
8409;SDS011;4242;53.670;10.080;2022-07-15T07:43:01;3.10;;;1.10;;
8409;SDS011;4242;53.670;10.080;2022-07-15T07:45:27;4.93;;;1.00;;
8409;SDS011;4242;53.670;10.080;2022-07-15T07:47:56;2.73;;;1.03;;
8409;SDS011;4242;53.670;10.080;2022-07-15T07:50:22;3.50;;;1.00;;
8409;SDS011;4242;53.670;10.080;2022-07-15T07:52:48;1.77;;;0.60;;
8409;SDS011;4242;53.670;10.080;2022-07-15T07:55:14;2.73;;;1.20;;
8409;SDS011;4242;53.670;10.080;2022-07-15T07:57:47;3.43;;;1.13;;
8409;SDS011;4242;53.670;10.080;2022-07-15T08:00:13;5.40;;;1.20;;
8409;SDS011;4242;53.670;10.080;2022-07-15T08:02:39;6.17;;;1.60;;
8409;SDS011;4242;53.670;10.080;2022-07-15T08:05:06;5.10;;;1.07;;
8409;SDS011;4242;53.670;10.080;2022-07-15T08:07:33;4.80;;;1.30;;
8409;SDS011;4242;53.670;10.080;2022-07-15T08:10:00;2.90;;;1.20;;
8409;SDS011;4242;53.670;10.080;2022-07-15T08:12:26;3.67;;;0.83;;
8409;SDS011;4242;53.670;10.080;2022-07-15T08:14:52;4.40;;;1.13;;
8409;SDS011;4242;53.670;10.080;2022-07-15T08:17:19;2.93;;;0.93;;
8409;SDS011;4242;53.670;10.080;2022-07-15T08:19:45;2.73;;;1.40;;
8409;SDS011;4242;53.670;10.080;2022-07-15T08:22:11;6.00;;;1.00;;
8409;SDS011;4242;53.670;10.080;2022-07-15T08:24:38;8.33;;;0.97;;
8409;SDS011;4242;53.670;10.080;2022-07-15T08:27:04;5.90;;;0.93;;
8409;SDS011;4242;53.670;10.080;2022-07-15T08:29:30;3.37;;;1.20;;
8409;SDS011;4242;53.670;10.080;2022-07-15T08:31:56;3.10;;;1.27;;
8409;SDS011;4242;53.670;10.080;2022-07-15T08:34:22;5.83;;;0.83;;
8409;SDS011;4242;53.670;10.080;2022-07-15T08:36:48;3.30;;;1.07;;
8409;SDS011;4242;53.670;10.080;2022-07-15T08:39:14;3.63;;;1.10;;
8409;SDS011;4242;53.670;10.080;2022-07-15T08:41:40;1.80;;;1.00;;
8409;SDS011;4242;53.670;10.080;2022-07-15T08:44:07;4.80;;;1.00;;
8409;SDS011;4242;53.670;10.080;2022-07-15T08:46:34;5.37;;;1.10;;
8409;SDS011;4242;53.670;10.080;2022-07-15T08:49:07;2.50;;;0.77;;
8409;SDS011;4242;53.670;10.080;2022-07-15T08:51:35;3.90;;;1.20;;
8409;SDS011;4242;53.670;10.080;2022-07-15T08:54:03;1.83;;;0.80;;
8409;SDS011;4242;53.670;10.080;2022-07-15T08:56:30;2.53;;;0.87;;
8409;SDS011;4242;53.670;10.080;2022-07-15T08:58:57;5.20;;;1.20;;
8409;SDS011;4242;53.670;10.080;2022-07-15T09:01:23;3.87;;;1.07;;
8409;SDS011;4242;53.670;10.080;2022-07-15T09:03:49;3.80;;;1.13;;
8409;SDS011;4242;53.670;10.080;2022-07-15T09:09:12;1.90;;;0.90;;
8409;SDS011;4242;53.670;10.080;2022-07-15T09:11:59;4.40;;;1.00;;
8409;SDS011;4242;53.670;10.080;2022-07-15T09:14:25;2.77;;;0.90;;
8409;SDS011;4242;53.670;10.080;2022-07-15T09:19:55;5.00;;;1.30;;
8409;SDS011;4242;53.670;10.080;2022-07-15T09:22:17;2.03;;;0.67;;
8409;SDS011;4242;53.670;10.080;2022-07-15T09:24:44;3.33;;;1.20;;
8409;SDS011;4242;53.670;10.080;2022-07-15T09:27:29;4.20;;;1.13;;
8409;SDS011;4242;53.670;10.080;2022-07-15T09:29:57;2.23;;;0.90;;
8409;SDS011;4242;53.670;10.080;2022-07-15T09:32:42;1.43;;;0.60;;
8409;SDS011;4242;53.670;10.080;2022-07-15T09:35:27;2.23;;;0.87;;
8409;SDS011;4242;53.670;10.080;2022-07-15T09:38:12;1.37;;;0.70;;
8409;SDS011;4242;53.670;10.080;2022-07-15T09:40:46;1.47;;;0.70;;
8409;SDS011;4242;53.670;10.080;2022-07-15T09:43:13;2.03;;;0.70;;
8409;SDS011;4242;53.670;10.080;2022-07-15T09:45:39;3.67;;;0.80;;
8409;SDS011;4242;53.670;10.080;2022-07-15T09:48:09;2.83;;;0.80;;
8409;SDS011;4242;53.670;10.080;2022-07-15T09:50:37;1.60;;;0.80;;
8409;SDS011;4242;53.670;10.080;2022-07-15T09:53:04;3.80;;;1.10;;
8409;SDS011;4242;53.670;10.080;2022-07-15T09:55:35;1.57;;;0.70;;
8409;SDS011;4242;53.670;10.080;2022-07-15T09:58:02;2.30;;;0.77;;
8409;SDS011;4242;53.670;10.080;2022-07-15T10:00:30;3.60;;;0.60;;
8409;SDS011;4242;53.670;10.080;2022-07-15T10:02:56;1.53;;;0.57;;
8409;SDS011;4242;53.670;10.080;2022-07-15T10:05:23;2.70;;;0.80;;
8409;SDS011;4242;53.670;10.080;2022-07-15T10:07:49;1.60;;;0.73;;
8409;SDS011;4242;53.670;10.080;2022-07-15T10:10:18;5.13;;;0.80;;
8409;SDS011;4242;53.670;10.080;2022-07-15T10:18:27;5.70;;;1.03;;
8409;SDS011;4242;53.670;10.080;2022-07-15T10:21:04;5.90;;;0.90;;
8409;SDS011;4242;53.670;10.080;2022-07-15T10:26:08;2.37;;;0.80;;
8409;SDS011;4242;53.670;10.080;2022-07-15T10:33:39;2.67;;;0.97;;
8409;SDS011;4242;53.670;10.080;2022-07-15T10:36:05;2.30;;;0.70;;
8409;SDS011;4242;53.670;10.080;2022-07-15T10:38:35;1.83;;;0.80;;
8409;SDS011;4242;53.670;10.080;2022-07-15T10:43:47;3.23;;;0.90;;
8409;SDS011;4242;53.670;10.080;2022-07-15T10:48:43;2.63;;;0.80;;
8409;SDS011;4242;53.670;10.080;2022-07-15T10:51:09;2.87;;;0.77;;
8409;SDS011;4242;53.670;10.080;2022-07-15T10:53:43;1.70;;;0.80;;
8409;SDS011;4242;53.670;10.080;2022-07-15T11:01:32;2.07;;;0.90;;
8409;SDS011;4242;53.670;10.080;2022-07-15T11:04:20;1.43;;;0.77;;
8409;SDS011;4242;53.670;10.080;2022-07-15T11:12:20;2.07;;;0.73;;
8409;SDS011;4242;53.670;10.080;2022-07-15T11:17:13;2.13;;;0.70;;
8409;SDS011;4242;53.670;10.080;2022-07-15T11:19:42;3.20;;;0.80;;
8409;SDS011;4242;53.670;10.080;2022-07-15T11:22:11;2.80;;;0.97;;
8409;SDS011;4242;53.670;10.080;2022-07-15T11:24:37;1.03;;;0.70;;
8409;SDS011;4242;53.670;10.080;2022-07-15T11:27:03;1.33;;;0.70;;
8409;SDS011;4242;53.670;10.080;2022-07-15T11:29:48;1.77;;;0.67;;
8409;SDS011;4242;53.670;10.080;2022-07-15T11:32:15;1.97;;;0.70;;
8409;SDS011;4242;53.670;10.080;2022-07-15T11:34:42;2.10;;;0.80;;
8409;SDS011;4242;53.670;10.080;2022-07-15T11:37:09;1.43;;;0.80;;
8409;SDS011;4242;53.670;10.080;2022-07-15T11:39:36;1.53;;;0.90;;
8409;SDS011;4242;53.670;10.080;2022-07-15T11:42:02;3.47;;;1.00;;
8409;SDS011;4242;53.670;10.080;2022-07-15T11:44:47;4.83;;;0.83;;
8409;SDS011;4242;53.670;10.080;2022-07-15T11:47:13;3.57;;;1.00;;
8409;SDS011;4242;53.670;10.080;2022-07-15T11:49:39;4.83;;;0.93;;
8409;SDS011;4242;53.670;10.080;2022-07-15T11:52:08;2.80;;;1.00;;
8409;SDS011;4242;53.670;10.080;2022-07-15T11:54:38;3.60;;;0.93;;
8409;SDS011;4242;53.670;10.080;2022-07-15T11:57:06;3.07;;;0.83;;
8409;SDS011;4242;53.670;10.080;2022-07-15T11:59:32;1.70;;;0.73;;
8409;SDS011;4242;53.670;10.080;2022-07-15T12:02:02;2.93;;;1.00;;
8409;SDS011;4242;53.670;10.080;2022-07-15T12:04:28;1.53;;;0.90;;
8409;SDS011;4242;53.670;10.080;2022-07-15T12:06:54;4.10;;;0.80;;
8409;SDS011;4242;53.670;10.080;2022-07-15T12:09:20;3.70;;;1.03;;
8409;SDS011;4242;53.670;10.080;2022-07-15T12:11:46;3.03;;;1.00;;
8409;SDS011;4242;53.670;10.080;2022-07-15T12:14:14;5.13;;;1.03;;
8409;SDS011;4242;53.670;10.080;2022-07-15T12:16:47;3.80;;;0.90;;
8409;SDS011;4242;53.670;10.080;2022-07-15T12:21:43;5.43;;;0.80;;
8409;SDS011;4242;53.670;10.080;2022-07-15T12:24:10;4.90;;;1.07;;
8409;SDS011;4242;53.670;10.080;2022-07-15T12:26:37;1.23;;;0.80;;
8409;SDS011;4242;53.670;10.080;2022-07-15T12:29:04;2.63;;;0.90;;
8409;SDS011;4242;53.670;10.080;2022-07-15T12:31:32;2.87;;;0.80;;
8409;SDS011;4242;53.670;10.080;2022-07-15T12:33:58;2.57;;;0.73;;
8409;SDS011;4242;53.670;10.080;2022-07-15T12:36:26;3.67;;;0.93;;
8409;SDS011;4242;53.670;10.080;2022-07-15T12:39:05;1.27;;;0.50;;
8409;SDS011;4242;53.670;10.080;2022-07-15T12:41:32;3.53;;;0.80;;
8409;SDS011;4242;53.670;10.080;2022-07-15T12:43:58;1.90;;;0.80;;
8409;SDS011;4242;53.670;10.080;2022-07-15T12:49:10;2.70;;;0.70;;
8409;SDS011;4242;53.670;10.080;2022-07-15T12:51:36;1.50;;;0.80;;
8409;SDS011;4242;53.670;10.080;2022-07-15T12:54:05;1.83;;;0.70;;
8409;SDS011;4242;53.670;10.080;2022-07-15T12:56:52;1.70;;;0.73;;
8409;SDS011;4242;53.670;10.080;2022-07-15T12:59:18;3.17;;;1.10;;
8409;SDS011;4242;53.670;10.080;2022-07-15T13:02:00;3.13;;;1.00;;
8409;SDS011;4242;53.670;10.080;2022-07-15T13:04:26;3.87;;;0.70;;
8409;SDS011;4242;53.670;10.080;2022-07-15T13:06:52;5.17;;;1.03;;
8409;SDS011;4242;53.670;10.080;2022-07-15T13:09:18;1.87;;;0.60;;
8409;SDS011;4242;53.670;10.080;2022-07-15T13:11:44;2.33;;;0.80;;
8409;SDS011;4242;53.670;10.080;2022-07-15T13:14:11;5.07;;;0.80;;
8409;SDS011;4242;53.670;10.080;2022-07-15T13:16:37;2.30;;;0.93;;
8409;SDS011;4242;53.670;10.080;2022-07-15T13:19:03;2.78;;;1.02;;
8409;SDS011;4242;53.670;10.080;2022-07-15T13:21:29;1.25;;;0.98;;
8409;SDS011;4242;53.670;10.080;2022-07-15T13:23:55;4.05;;;1.13;;
8409;SDS011;4242;53.670;10.080;2022-07-15T13:26:21;1.45;;;0.85;;
8409;SDS011;4242;53.670;10.080;2022-07-15T13:28:47;4.35;;;1.17;;
8409;SDS011;4242;53.670;10.080;2022-07-15T13:31:13;4.50;;;1.15;;
8409;SDS011;4242;53.670;10.080;2022-07-15T13:33:39;3.05;;;1.02;;
8409;SDS011;4242;53.670;10.080;2022-07-15T13:36:05;3.90;;;0.98;;
8409;SDS011;4242;53.670;10.080;2022-07-15T13:38:31;2.58;;;0.93;;
8409;SDS011;4242;53.670;10.080;2022-07-15T13:40:57;2.83;;;0.98;;
8409;SDS011;4242;53.670;10.080;2022-07-15T13:43:23;5.85;;;0.90;;
8409;SDS011;4242;53.670;10.080;2022-07-15T13:45:49;2.53;;;1.00;;
8409;SDS011;4242;53.670;10.080;2022-07-15T13:48:15;3.13;;;0.73;;
8409;SDS011;4242;53.670;10.080;2022-07-15T13:50:41;1.80;;;0.80;;
8409;SDS011;4242;53.670;10.080;2022-07-15T13:53:26;12.65;;;1.10;;
8409;SDS011;4242;53.670;10.080;2022-07-15T13:55:52;3.85;;;0.93;;
8409;SDS011;4242;53.670;10.080;2022-07-15T13:58:18;3.83;;;1.20;;
8409;SDS011;4242;53.670;10.080;2022-07-15T14:00:44;2.92;;;0.75;;
8409;SDS011;4242;53.670;10.080;2022-07-15T14:03:10;1.02;;;0.60;;
8409;SDS011;4242;53.670;10.080;2022-07-15T14:05:36;4.07;;;0.82;;
8409;SDS011;4242;53.670;10.080;2022-07-15T14:08:02;4.63;;;0.90;;
8409;SDS011;4242;53.670;10.080;2022-07-15T14:10:28;5.30;;;1.27;;
8409;SDS011;4242;53.670;10.080;2022-07-15T14:12:54;2.43;;;0.70;;
8409;SDS011;4242;53.670;10.080;2022-07-15T14:15:20;4.28;;;0.63;;
8409;SDS011;4242;53.670;10.080;2022-07-15T14:17:46;3.30;;;0.88;;
8409;SDS011;4242;53.670;10.080;2022-07-15T14:20:12;2.00;;;0.77;;
8409;SDS011;4242;53.670;10.080;2022-07-15T14:22:40;3.30;;;0.68;;
8409;SDS011;4242;53.670;10.080;2022-07-15T14:25:06;1.27;;;0.63;;
8409;SDS011;4242;53.670;10.080;2022-07-15T14:27:33;2.50;;;0.60;;
8409;SDS011;4242;53.670;10.080;2022-07-15T14:29:59;2.55;;;0.68;;
8409;SDS011;4242;53.670;10.080;2022-07-15T14:32:25;3.05;;;0.70;;
8409;SDS011;4242;53.670;10.080;2022-07-15T14:34:51;1.67;;;0.68;;
8409;SDS011;4242;53.670;10.080;2022-07-15T14:37:17;1.50;;;0.70;;
8409;SDS011;4242;53.670;10.080;2022-07-15T14:39:43;0.50;;;0.50;;
8409;SDS011;4242;53.670;10.080;2022-07-15T14:42:09;2.92;;;0.70;;
8409;SDS011;4242;53.670;10.080;2022-07-15T14:44:36;1.20;;;0.60;;
8409;SDS011;4242;53.670;10.080;2022-07-15T14:47:02;0.65;;;0.50;;
8409;SDS011;4242;53.670;10.080;2022-07-15T14:49:28;0.50;;;0.43;;
8409;SDS011;4242;53.670;10.080;2022-07-15T14:51:55;1.83;;;0.75;;
8409;SDS011;4242;53.670;10.080;2022-07-15T14:54:20;0.88;;;0.70;;
8409;SDS011;4242;53.670;10.080;2022-07-15T14:56:46;3.03;;;0.85;;
8409;SDS011;4242;53.670;10.080;2022-07-15T14:59:13;1.08;;;0.65;;
8409;SDS011;4242;53.670;10.080;2022-07-15T15:01:39;3.42;;;0.80;;
8409;SDS011;4242;53.670;10.080;2022-07-15T15:04:05;1.02;;;0.63;;
8409;SDS011;4242;53.670;10.080;2022-07-15T15:06:31;1.48;;;0.60;;
8409;SDS011;4242;53.670;10.080;2022-07-15T15:08:57;2.28;;;0.73;;
8409;SDS011;4242;53.670;10.080;2022-07-15T15:11:24;0.77;;;0.63;;
8409;SDS011;4242;53.670;10.080;2022-07-15T15:13:50;0.98;;;0.73;;
8409;SDS011;4242;53.670;10.080;2022-07-15T15:16:16;2.58;;;0.50;;
8409;SDS011;4242;53.670;10.080;2022-07-15T15:18:42;1.13;;;0.60;;
8409;SDS011;4242;53.670;10.080;2022-07-15T15:21:08;1.73;;;0.65;;
8409;SDS011;4242;53.670;10.080;2022-07-15T15:23:34;1.33;;;0.93;;
8409;SDS011;4242;53.670;10.080;2022-07-15T15:26:00;1.17;;;0.80;;
8409;SDS011;4242;53.670;10.080;2022-07-15T15:28:45;1.42;;;0.80;;
8409;SDS011;4242;53.670;10.080;2022-07-15T15:31:11;0.98;;;0.80;;
8409;SDS011;4242;53.670;10.080;2022-07-15T15:33:37;1.38;;;0.85;;
8409;SDS011;4242;53.670;10.080;2022-07-15T15:36:03;3.75;;;0.73;;
8409;SDS011;4242;53.670;10.080;2022-07-15T15:38:29;1.23;;;0.50;;
8409;SDS011;4242;53.670;10.080;2022-07-15T15:40:55;1.02;;;0.70;;
8409;SDS011;4242;53.670;10.080;2022-07-15T15:43:21;1.17;;;0.70;;
8409;SDS011;4242;53.670;10.080;2022-07-15T15:45:47;2.22;;;0.52;;
8409;SDS011;4242;53.670;10.080;2022-07-15T15:48:13;2.63;;;0.80;;